createdAt,value
2019-04-14T00:00:47.554Z,18.55
2019-04-14T00:03:24.217Z,19.95
2019-04-14T00:06:00.518Z,17.02
2019-04-14T00:08:30.624Z,18.52
2019-04-14T00:11:06.750Z,21.80
2019-04-14T00:13:35.647Z,15.78
2019-04-14T00:16:05.302Z,19.67
2019-04-14T00:18:38.555Z,18.60
2019-04-14T00:21:10.857Z,18.17
2019-04-14T00:23:43.687Z,17.50
2019-04-14T00:26:29.448Z,18.25
2019-04-14T00:28:59.921Z,16.85
2019-04-14T00:31:30.823Z,16.40
2019-04-14T00:34:05.404Z,18.95
2019-04-14T00:36:45.868Z,17.77
2019-04-14T00:39:18.560Z,14.65
2019-04-14T00:41:58.632Z,19.32
2019-04-14T00:44:39.330Z,17.50
2019-04-14T00:47:13.481Z,17.55
2019-04-14T00:49:42.314Z,16.87
2019-04-14T00:52:15.023Z,15.80
2019-04-14T00:54:43.684Z,18.45
2019-04-14T00:57:12.123Z,16.85
2019-04-14T00:59:42.117Z,18.07
2019-04-14T01:02:10.893Z,18.62
2019-04-14T01:04:40.864Z,18.30
2019-04-14T01:07:09.439Z,15.98
2019-04-14T01:09:41.265Z,16.20
2019-04-14T01:12:11.746Z,17.45
2019-04-14T01:14:45.587Z,16.90
2019-04-14T01:17:22.687Z,19.52
2019-04-14T01:19:51.186Z,16.65
2019-04-14T01:22:20.635Z,15.23
2019-04-14T01:24:49.137Z,13.95
2019-04-14T01:27:18.842Z,19.60
2019-04-14T01:29:51.638Z,16.77
2019-04-14T01:32:19.862Z,20.97
2019-04-14T01:34:51.123Z,22.02
2019-04-14T01:37:23.194Z,22.50
2019-04-14T01:39:54.484Z,18.92
2019-04-14T01:42:23.114Z,25.37
2019-04-14T01:44:52.512Z,25.88
2019-04-14T01:47:21.232Z,23.00
2019-04-14T01:49:55.101Z,19.15
2019-04-14T01:52:40.656Z,21.30
2019-04-14T01:55:28.777Z,16.07
2019-04-14T01:57:59.111Z,18.67
2019-04-14T02:00:51.309Z,13.90
2019-04-14T02:03:23.872Z,19.35
2019-04-14T02:05:53.941Z,18.07
2019-04-14T02:08:26.271Z,17.42
2019-04-14T02:11:01.070Z,18.57
2019-04-14T02:13:31.103Z,20.85
2019-04-14T02:16:15.135Z,21.12
2019-04-14T02:18:33.982Z,24.63
2019-04-14T02:21:06.333Z,21.27
2019-04-14T02:23:38.663Z,18.73
2019-04-14T02:26:13.597Z,20.68
2019-04-14T02:28:46.186Z,20.50
2019-04-14T02:31:46.918Z,21.07
2019-04-14T02:34:41.765Z,21.10
2019-04-14T02:39:39.061Z,20.75
2019-04-14T02:42:30.477Z,19.92
2019-04-14T02:45:10.599Z,26.33
2019-04-14T02:50:38.276Z,27.40
2019-04-14T02:53:27.134Z,29.12
2019-04-14T02:55:52.407Z,31.42
2019-04-14T02:58:38.444Z,26.07
2019-04-14T03:03:55.979Z,25.97
2019-04-14T03:12:19.118Z,26.17
2019-04-14T03:15:07.272Z,29.57
2019-04-14T03:17:30.128Z,26.50
2019-04-14T03:20:20.516Z,35.80
2019-04-14T03:22:55.765Z,26.30
2019-04-14T03:51:08.441Z,31.40
2019-04-14T03:59:43.459Z,39.65
2019-04-14T04:05:52.353Z,38.58
2019-04-14T04:11:58.367Z,39.95
2019-04-14T04:17:45.224Z,37.00
2019-04-14T04:20:41.629Z,39.25
2019-04-14T04:23:24.835Z,46.20
2019-04-14T04:25:59.560Z,44.35
2019-04-14T04:29:00.601Z,47.03
2019-04-14T04:31:48.158Z,39.48
2019-04-14T04:34:38.024Z,47.25
2019-04-14T04:37:26.062Z,40.25
2019-04-14T04:39:58.898Z,43.73
2019-04-14T04:42:28.585Z,37.30
2019-04-14T04:44:59.598Z,53.73
2019-04-14T04:47:28.055Z,46.90
2019-04-14T04:49:57.572Z,40.12
2019-04-14T04:52:28.106Z,41.65
2019-04-14T04:54:56.437Z,44.05
2019-04-14T04:57:24.998Z,42.25
2019-04-14T05:00:02.930Z,44.40
2019-04-14T05:02:39.614Z,40.00
2019-04-14T05:05:43.516Z,47.43
2019-04-14T05:08:13.036Z,50.70
2019-04-14T05:10:43.602Z,43.48
2019-04-14T05:13:12.417Z,50.50
2019-04-14T05:15:42.491Z,47.35
2019-04-14T05:18:13.363Z,39.92
2019-04-14T05:20:42.090Z,49.35
2019-04-14T05:23:10.502Z,45.92
2019-04-14T05:25:38.899Z,40.20
2019-04-14T05:28:07.332Z,42.95
2019-04-14T05:30:35.742Z,42.65
2019-04-14T05:33:05.246Z,40.12
2019-04-14T05:35:33.858Z,44.67
2019-04-14T05:38:02.278Z,42.65
2019-04-14T05:40:32.051Z,42.08
2019-04-14T05:43:11.301Z,38.90
2019-04-14T05:45:39.813Z,39.10
2019-04-14T05:48:09.623Z,36.75
2019-04-14T05:50:38.285Z,40.52
2019-04-14T05:53:06.730Z,36.55
2019-04-14T05:55:35.261Z,37.58
2019-04-14T05:58:03.722Z,37.08
2019-04-14T06:00:32.497Z,39.58
2019-04-14T06:03:01.682Z,39.23
2019-04-14T06:05:30.190Z,35.30
2019-04-14T06:07:58.831Z,33.05
2019-04-14T06:10:27.492Z,33.75
2019-04-14T06:12:55.968Z,34.23
2019-04-14T06:15:24.371Z,30.37
2019-04-14T06:17:52.773Z,31.77
2019-04-14T06:20:30.052Z,31.70
2019-04-14T06:22:58.752Z,35.30
2019-04-14T06:25:27.189Z,29.42
2019-04-14T06:27:55.834Z,27.32
2019-04-14T06:30:41.709Z,28.60
2019-04-14T06:33:11.723Z,29.72
2019-04-14T06:35:41.813Z,28.38
2019-04-14T06:38:11.858Z,31.20
2019-04-14T06:40:47.598Z,28.62
2019-04-14T06:43:16.269Z,26.87
2019-04-14T06:45:44.701Z,26.42
2019-04-14T06:48:13.360Z,29.02
2019-04-14T06:50:41.849Z,26.55
2019-04-14T06:53:10.499Z,23.35
2019-04-14T06:55:38.935Z,21.48
2019-04-14T06:58:07.376Z,24.60
2019-04-14T07:00:35.794Z,24.10
2019-04-14T07:03:04.227Z,22.67
2019-04-14T07:05:32.648Z,26.37
2019-04-14T07:08:01.058Z,24.65
2019-04-14T07:10:29.702Z,24.50
2019-04-14T07:12:58.105Z,24.32
2019-04-14T07:15:26.551Z,20.65
2019-04-14T07:17:54.960Z,22.30
2019-04-14T07:20:23.586Z,27.00
2019-04-14T07:22:52.011Z,20.68
2019-04-14T07:25:20.427Z,20.20
2019-04-14T07:27:48.830Z,23.12
2019-04-14T07:30:18.925Z,21.80
2019-04-14T07:32:51.704Z,18.35
2019-04-14T07:35:24.703Z,21.57
2019-04-14T07:37:54.753Z,24.70
2019-04-14T07:40:24.942Z,23.05
2019-04-14T07:43:06.671Z,20.52
2019-04-14T07:45:37.062Z,21.40
2019-04-14T07:48:07.393Z,19.77
2019-04-14T07:50:37.689Z,20.30
2019-04-14T07:53:23.668Z,19.80
2019-04-14T07:55:53.734Z,21.80
2019-04-14T07:58:26.715Z,19.97
2019-04-14T08:01:05.741Z,18.73
2019-04-14T08:03:38.513Z,22.33
2019-04-14T08:06:06.988Z,23.57
2019-04-14T08:08:35.637Z,18.20
2019-04-14T08:11:04.418Z,18.83
2019-04-14T08:13:32.862Z,18.57
2019-04-14T08:16:01.385Z,18.83
2019-04-14T08:18:29.806Z,17.77
2019-04-14T08:20:58.260Z,17.67
2019-04-14T08:23:26.791Z,17.50
2019-04-14T08:25:55.186Z,17.70
2019-04-14T08:28:23.616Z,19.30
2019-04-14T08:30:52.073Z,22.63
2019-04-14T08:33:20.503Z,23.17
2019-04-14T08:35:48.953Z,21.97
2019-04-14T08:38:17.426Z,21.30
2019-04-14T08:40:45.845Z,19.30
2019-04-14T08:43:22.262Z,17.30
2019-04-14T08:45:58.581Z,20.97
2019-04-14T08:48:31.763Z,19.70
2019-04-14T08:51:02.885Z,19.50
2019-04-14T08:53:49.286Z,16.67
2019-04-14T08:56:34.375Z,20.10
2019-04-14T08:59:20.674Z,18.80
2019-04-14T09:02:02.626Z,17.53
2019-04-14T09:04:38.397Z,18.87
2019-04-14T09:07:11.347Z,17.57
2019-04-14T09:09:41.437Z,20.97
2019-04-14T09:12:15.933Z,15.23
2019-04-14T09:14:41.687Z,15.50
2019-04-14T09:17:10.126Z,18.37
2019-04-14T09:19:38.541Z,19.23
2019-04-14T09:22:06.960Z,16.97
2019-04-14T09:24:35.390Z,17.10
2019-04-14T09:27:03.904Z,15.17
2019-04-14T09:29:32.308Z,17.50
2019-04-14T09:32:01.292Z,14.40
2019-04-14T09:34:29.696Z,15.83
2019-04-14T09:36:58.121Z,16.00
2019-04-14T09:39:26.554Z,17.37
2019-04-14T09:41:54.966Z,16.67
2019-04-14T09:44:23.711Z,18.30
2019-04-14T09:46:52.126Z,16.43
2019-04-14T09:49:20.550Z,15.53
2019-04-14T09:51:48.971Z,24.03
2019-04-14T09:54:17.386Z,17.90
2019-04-14T09:56:46.407Z,18.90
2019-04-14T09:59:15.096Z,17.10
2019-04-14T10:01:43.592Z,12.97
2019-04-14T10:04:12.067Z,14.90
2019-04-14T10:06:40.972Z,14.30
2019-04-14T10:09:09.753Z,16.60
2019-04-14T10:11:47.905Z,16.30
2019-04-14T10:14:08.616Z,14.27
2019-04-14T10:16:37.033Z,15.90
2019-04-14T10:19:05.483Z,15.03
2019-04-14T10:21:33.896Z,13.30
2019-04-14T10:24:02.326Z,18.10
2019-04-14T10:26:30.725Z,15.20
2019-04-14T10:28:59.409Z,14.70
2019-04-14T10:31:27.818Z,15.47
2019-04-14T10:33:56.446Z,15.20
2019-04-14T10:36:24.872Z,14.33
2019-04-14T10:38:53.282Z,20.20
2019-04-14T10:41:21.703Z,13.53
2019-04-14T10:43:50.364Z,13.00
2019-04-14T10:46:18.770Z,15.67
2019-04-14T10:48:47.182Z,15.23
2019-04-14T10:51:15.624Z,14.33
2019-04-14T10:53:44.018Z,14.83
2019-04-14T10:56:12.438Z,14.50
2019-04-14T10:58:40.847Z,15.73
2019-04-14T11:01:09.334Z,15.40
2019-04-14T11:03:38.058Z,14.07
2019-04-14T11:06:10.811Z,15.27
2019-04-14T11:08:39.472Z,15.70
2019-04-14T11:11:07.877Z,16.13
2019-04-14T11:13:36.284Z,15.20
2019-04-14T11:16:04.903Z,14.17
2019-04-14T11:18:33.344Z,16.20
2019-04-14T11:24:04.171Z,14.60
2019-04-14T11:26:32.568Z,13.57
2019-04-14T11:29:01.283Z,15.47
2019-04-14T11:31:40.174Z,17.27
2019-04-14T11:34:09.590Z,15.17
2019-04-14T11:36:42.845Z,13.90
2019-04-14T11:39:13.209Z,17.10
2019-04-14T11:41:41.868Z,14.57
2019-04-14T11:44:10.294Z,14.73
2019-04-14T11:46:38.706Z,13.97
2019-04-14T11:49:07.183Z,20.60
2019-04-14T11:51:35.597Z,15.80
2019-04-14T11:54:04.145Z,13.63
2019-04-14T11:56:32.635Z,13.57
2019-04-14T11:59:01.144Z,14.17
2019-04-14T12:01:49.507Z,16.90
2019-04-14T12:04:28.391Z,14.43
2019-04-14T12:07:01.243Z,12.90
2019-04-14T12:09:31.366Z,15.70
2019-04-14T12:11:59.892Z,14.50
2019-04-14T12:14:29.004Z,13.23
2019-04-14T12:16:57.402Z,15.17
2019-04-14T12:19:25.851Z,14.43
2019-04-14T12:21:54.258Z,14.90
2019-04-14T12:24:22.673Z,16.60
2019-04-14T12:26:51.081Z,16.70
2019-04-14T12:29:19.509Z,18.30
2019-04-14T12:31:48.722Z,13.60
2019-04-14T12:34:18.382Z,12.27
2019-04-14T12:36:47.018Z,15.30
2019-04-14T12:39:23.607Z,14.80
2019-04-14T12:42:03.171Z,16.40
2019-04-14T12:44:39.294Z,15.10
2019-04-14T12:47:09.349Z,14.40
2019-04-14T12:49:41.902Z,14.53
2019-04-14T12:52:21.994Z,14.10
2019-04-14T12:54:50.922Z,14.40
2019-04-14T12:57:21.002Z,14.70
2019-04-14T12:59:49.768Z,13.63
2019-04-14T13:02:19.818Z,13.70
2019-04-14T13:04:48.219Z,14.40
2019-04-14T13:07:16.739Z,17.00
2019-04-14T13:09:45.274Z,15.37
2019-04-14T13:12:13.766Z,16.00
2019-04-14T13:14:42.464Z,18.93
2019-04-14T13:17:11.908Z,15.37
2019-04-14T13:19:40.572Z,13.87
2019-04-14T13:22:09.052Z,14.57
2019-04-14T13:24:37.542Z,14.10
2019-04-14T13:27:05.950Z,15.90
2019-04-14T13:29:34.353Z,15.57
2019-04-14T13:32:02.758Z,15.37
2019-04-14T13:34:31.182Z,14.77
2019-04-14T13:36:59.577Z,16.30
2019-04-14T13:39:27.985Z,19.17
2019-04-14T13:41:56.407Z,16.93
2019-04-14T13:44:24.806Z,16.93
2019-04-14T13:46:53.293Z,15.90
2019-04-14T13:49:21.932Z,15.33
2019-04-14T13:51:50.581Z,17.70
2019-04-14T13:54:19.006Z,15.97
2019-04-14T13:56:47.419Z,15.83
2019-04-14T13:59:15.834Z,18.23
2019-04-14T14:01:44.249Z,17.83
2019-04-14T14:04:12.651Z,16.23
2019-04-14T14:06:41.293Z,16.80
2019-04-14T14:09:11.287Z,15.87
2019-04-14T14:11:41.586Z,15.60
2019-04-14T14:14:14.694Z,14.50
2019-04-14T14:16:56.689Z,16.10
2019-04-14T14:19:26.762Z,13.60
2019-04-14T14:21:59.762Z,13.10
2019-04-14T14:24:35.566Z,12.30
2019-04-14T14:27:05.050Z,15.50
2019-04-14T14:29:33.476Z,13.10
2019-04-14T14:32:04.693Z,12.23
2019-04-14T14:34:33.525Z,13.07
2019-04-14T14:37:01.938Z,18.27
2019-04-14T14:39:30.884Z,14.57
2019-04-14T14:41:59.563Z,15.00
2019-04-14T14:44:35.639Z,15.17
2019-04-14T14:47:11.510Z,18.43
2019-04-14T14:49:59.592Z,15.53
2019-04-14T14:52:28.082Z,13.47
2019-04-14T14:54:56.770Z,15.90
2019-04-14T14:57:25.234Z,14.20
2019-04-14T14:59:53.761Z,15.30
2019-04-14T15:02:22.257Z,14.00
2019-04-14T15:04:50.687Z,14.23
2019-04-14T15:07:19.123Z,13.60
2019-04-14T15:09:47.795Z,14.80
2019-04-14T15:12:16.207Z,21.40
2019-04-14T15:14:44.651Z,12.97
2019-04-14T15:17:13.061Z,16.33
2019-04-14T15:19:41.465Z,14.43
2019-04-14T15:22:09.885Z,15.97
2019-04-14T15:24:38.370Z,13.03
2019-04-14T15:27:06.777Z,14.50
2019-04-14T15:29:35.216Z,17.43
2019-04-14T15:32:03.875Z,17.30
2019-04-14T15:34:32.313Z,14.87
2019-04-14T15:37:00.746Z,16.10
2019-04-14T15:39:29.406Z,11.80
2019-04-14T15:41:57.910Z,15.00
2019-04-14T15:44:26.340Z,12.77
2019-04-14T15:46:54.736Z,15.40
2019-04-14T15:49:34.014Z,11.47
2019-04-14T15:52:09.599Z,14.07
2019-04-14T15:54:39.270Z,12.60
2019-04-14T15:57:14.946Z,19.25
2019-04-14T15:59:45.971Z,16.20
2019-04-14T16:02:34.630Z,12.30
2019-04-14T16:05:13.778Z,14.10
2019-04-14T16:08:09.405Z,14.78
2019-04-14T16:10:46.089Z,15.30
2019-04-14T16:13:16.170Z,13.72
2019-04-14T16:15:51.918Z,12.05
2019-04-14T16:18:24.402Z,12.78
2019-04-14T16:20:52.827Z,11.63
2019-04-14T16:23:21.523Z,13.15
2019-04-14T16:25:54.300Z,12.85
2019-04-14T16:28:27.091Z,12.78
2019-04-14T16:31:03.346Z,12.47
2019-04-14T16:33:38.141Z,16.48
2019-04-14T16:36:06.828Z,11.35
2019-04-14T16:38:35.250Z,14.13
2019-04-14T16:41:03.947Z,15.23
2019-04-14T16:43:32.405Z,14.10
2019-04-14T16:46:00.800Z,14.47
2019-04-14T16:48:29.227Z,15.35
2019-04-14T16:50:59.823Z,12.90
2019-04-14T16:53:31.936Z,17.67
2019-04-14T16:56:04.943Z,12.63
2019-04-14T16:58:37.843Z,17.90
2019-04-14T17:01:10.753Z,13.65
2019-04-14T17:03:39.493Z,12.58
2019-04-14T17:06:07.884Z,15.83
2019-04-14T17:08:36.669Z,13.70
2019-04-14T17:11:05.151Z,16.27
2019-04-14T17:13:35.203Z,13.53
2019-04-14T17:16:14.136Z,15.40
2019-04-14T17:18:53.472Z,15.35
2019-04-14T17:21:32.467Z,17.10
2019-04-14T17:24:16.029Z,14.25
2019-04-14T17:26:37.769Z,15.75
2019-04-14T17:29:29.734Z,12.68
2019-04-14T17:32:00.033Z,20.35
2019-04-14T17:34:38.270Z,17.32
2019-04-14T17:37:17.107Z,16.23
2019-04-14T17:39:49.603Z,16.85
2019-04-14T17:42:22.969Z,18.95
2019-04-14T17:44:53.061Z,18.62
2019-04-14T17:47:31.108Z,15.45
2019-04-14T17:50:01.166Z,15.15
2019-04-14T17:52:37.017Z,20.30
2019-04-14T17:55:22.955Z,18.02
2019-04-14T17:58:04.974Z,16.55
2019-04-14T18:00:41.093Z,27.15
2019-04-14T18:03:13.909Z,14.05
2019-04-14T18:05:46.788Z,12.03
2019-04-14T18:08:29.163Z,15.60
2019-04-14T18:11:11.416Z,12.53
2019-04-14T18:13:59.745Z,14.07
2019-04-14T18:16:30.055Z,14.90
2019-04-14T18:19:16.266Z,15.53
2019-04-14T18:21:44.679Z,15.20
2019-04-14T18:24:13.174Z,22.90
2019-04-14T18:26:41.630Z,13.75
2019-04-14T18:29:29.927Z,13.78
2019-04-14T18:32:00.318Z,15.90
2019-04-14T18:34:48.088Z,16.23
2019-04-14T18:37:33.582Z,16.55
2019-04-14T18:40:14.040Z,16.20
2019-04-14T18:42:48.938Z,16.40
2019-04-14T18:45:25.174Z,17.35
2019-04-14T18:47:55.247Z,15.63
2019-04-14T18:50:27.321Z,16.73
2019-04-14T18:53:03.196Z,18.90
2019-04-14T18:55:48.106Z,19.67
2019-04-14T18:58:28.233Z,18.20
2019-04-14T19:04:17.751Z,15.50
2019-04-14T19:06:46.714Z,16.27
2019-04-14T19:09:15.413Z,17.60
2019-04-14T19:11:53.160Z,15.20
2019-04-14T19:14:25.030Z,15.85
2019-04-14T19:20:22.479Z,16.75
2019-04-14T19:23:00.039Z,16.25
2019-04-14T19:25:24.808Z,17.05
2019-04-14T19:27:53.669Z,15.23
2019-04-14T19:30:22.607Z,12.33
2019-04-14T19:32:51.323Z,14.45
2019-04-14T19:35:20.215Z,13.40
2019-04-14T19:37:49.386Z,18.20
2019-04-14T19:40:20.055Z,16.42
2019-04-14T19:42:48.538Z,15.32
2019-04-14T19:45:25.175Z,17.40
2019-04-14T19:47:53.909Z,12.47
2019-04-14T19:50:22.457Z,13.60
2019-04-14T19:52:55.771Z,14.58
2019-04-14T19:58:05.999Z,14.10
2019-04-14T20:03:22.894Z,13.45
2019-04-14T20:05:56.762Z,17.07
2019-04-14T20:08:44.776Z,18.32
2019-04-14T20:11:16.688Z,16.90
2019-04-14T20:13:48.072Z,18.70
2019-04-14T20:20:04.067Z,12.28
2019-04-14T20:22:43.392Z,13.70
2019-04-14T20:25:32.620Z,14.30
2019-04-14T20:27:54.725Z,13.45
2019-04-14T20:30:28.099Z,12.15
2019-04-14T20:33:10.695Z,15.53
2019-04-14T20:42:07.920Z,14.93
2019-04-14T20:44:51.218Z,15.93
2019-04-14T20:48:39.870Z,14.93
2019-04-14T20:51:03.103Z,16.87
2019-04-14T20:53:32.512Z,13.05
2019-04-14T21:02:04.478Z,10.40
2019-04-14T21:04:43.995Z,10.98
2019-04-14T21:07:30.743Z,10.95
2019-04-14T21:10:17.410Z,11.48
2019-04-14T21:12:47.746Z,10.43
2019-04-14T21:15:21.125Z,11.15
2019-04-14T21:18:02.332Z,9.75
2019-04-14T21:20:34.560Z,14.25
2019-04-14T21:23:11.133Z,11.65
2019-04-14T21:25:41.833Z,12.68
2019-04-14T21:28:17.795Z,13.03
2019-04-14T21:30:57.952Z,11.38
2019-04-14T21:33:31.189Z,12.15
2019-04-14T21:36:04.469Z,10.58
2019-04-14T21:38:44.810Z,9.83
2019-04-14T21:41:17.677Z,11.75
2019-04-14T21:43:48.249Z,10.18
2019-04-14T21:46:16.915Z,9.35
2019-04-14T21:48:45.421Z,10.25
2019-04-14T21:51:13.822Z,8.13
2019-04-14T21:53:42.272Z,9.08
2019-04-14T21:56:13.628Z,8.83
2019-04-14T21:58:43.024Z,8.25
2019-04-14T22:01:38.830Z,7.37
2019-04-14T22:04:25.798Z,9.40
2019-04-14T22:06:55.896Z,9.13
2019-04-14T22:09:40.018Z,8.93
2019-04-14T22:12:08.691Z,7.80
2019-04-14T22:14:37.109Z,7.95
2019-04-14T22:17:05.842Z,8.35
2019-04-14T22:19:34.246Z,9.20
2019-04-14T22:22:04.207Z,8.08
2019-04-14T22:24:32.615Z,7.87
2019-04-14T22:27:01.042Z,7.55
2019-04-14T22:29:29.478Z,8.05
2019-04-14T22:32:00.637Z,8.25
2019-04-14T22:34:29.071Z,8.95
2019-04-14T22:36:57.518Z,11.88
2019-04-14T22:39:25.917Z,7.90
2019-04-14T22:41:54.339Z,8.83
2019-04-14T22:44:22.789Z,8.98
2019-04-14T22:46:51.199Z,10.03
2019-04-14T22:49:22.032Z,10.00
2019-04-14T22:51:51.608Z,6.42
2019-04-14T22:54:20.113Z,7.92
2019-04-14T22:56:48.748Z,7.20
2019-04-14T22:59:18.241Z,8.28
2019-04-14T23:01:56.926Z,6.30
2019-04-14T23:04:37.992Z,8.35
2019-04-14T23:07:26.823Z,7.30
2019-04-14T23:10:04.688Z,7.25
2019-04-14T23:12:34.778Z,7.42
2019-04-14T23:15:18.141Z,6.65
2019-04-14T23:17:48.554Z,8.85
2019-04-14T23:20:37.606Z,8.35
2019-04-14T23:25:49.371Z,7.67
2019-04-14T23:28:19.502Z,6.45
2019-04-14T23:30:51.053Z,7.97
2019-04-14T23:33:28.418Z,7.22
2019-04-14T23:35:59.089Z,7.83
2019-04-14T23:38:32.454Z,6.72
2019-04-14T23:43:51.240Z,7.20
2019-04-14T23:46:21.731Z,7.20
2019-04-14T23:48:51.818Z,8.10
